sensor_id;sensor_type;location;lat;lon;timestamp;temperature;humidity
6110;DHT22;3085;49.444;11.054;2023-02-01T00:02:08;4.30;99.90
6110;DHT22;3085;49.444;11.054;2023-02-01T00:04:36;4.40;99.90
6110;DHT22;3085;49.444;11.054;2023-02-01T00:07:03;4.40;99.90
6110;DHT22;3085;49.444;11.054;2023-02-01T00:09:30;4.40;99.90
6110;DHT22;3085;49.444;11.054;2023-02-01T00:11:57;4.40;99.90
6110;DHT22;3085;49.444;11.054;2023-02-01T00:14:27;4.40;99.90
6110;DHT22;3085;49.444;11.054;2023-02-01T00:16:54;4.40;99.90
6110;DHT22;3085;49.444;11.054;2023-02-01T00:19:21;4.40;99.90
6110;DHT22;3085;49.444;11.054;2023-02-01T00:21:49;4.40;99.90
6110;DHT22;3085;49.444;11.054;2023-02-01T00:24:16;4.50;99.90
6110;DHT22;3085;49.444;11.054;2023-02-01T00:26:44;4.50;99.90
6110;DHT22;3085;49.444;11.054;2023-02-01T00:29:13;4.60;99.90
6110;DHT22;3085;49.444;11.054;2023-02-01T00:31:41;4.50;99.90
6110;DHT22;3085;49.444;11.054;2023-02-01T00:34:09;4.50;99.90
6110;DHT22;3085;49.444;11.054;2023-02-01T00:36:37;4.50;99.90
6110;DHT22;3085;49.444;11.054;2023-02-01T00:39:06;4.50;99.90
6110;DHT22;3085;49.444;11.054;2023-02-01T00:41:33;4.50;99.90
6110;DHT22;3085;49.444;11.054;2023-02-01T00:43:59;4.50;99.90
6110;DHT22;3085;49.444;11.054;2023-02-01T00:46:26;4.50;99.90
6110;DHT22;3085;49.444;11.054;2023-02-01T00:48:53;4.50;99.90
6110;DHT22;3085;49.444;11.054;2023-02-01T00:51:22;4.60;99.90
6110;DHT22;3085;49.444;11.054;2023-02-01T00:53:50;4.60;99.90
6110;DHT22;3085;49.444;11.054;2023-02-01T00:56:18;4.60;99.90
6110;DHT22;3085;49.444;11.054;2023-02-01T00:58:45;4.60;99.90
6110;DHT22;3085;49.444;11.054;2023-02-01T01:01:15;4.60;99.90
6110;DHT22;3085;49.444;11.054;2023-02-01T01:03:44;4.50;99.90
6110;DHT22;3085;49.444;11.054;2023-02-01T01:06:13;4.60;99.90
6110;DHT22;3085;49.444;11.054;2023-02-01T01:08:41;4.60;99.90
6110;DHT22;3085;49.444;11.054;2023-02-01T01:11:10;4.60;99.90
6110;DHT22;3085;49.444;11.054;2023-02-01T01:13:38;4.60;99.90
6110;DHT22;3085;49.444;11.054;2023-02-01T01:16:06;4.60;99.90
6110;DHT22;3085;49.444;11.054;2023-02-01T01:18:34;4.60;99.90
6110;DHT22;3085;49.444;11.054;2023-02-01T01:21:03;4.60;99.90
6110;DHT22;3085;49.444;11.054;2023-02-01T01:23:30;4.60;99.90
6110;DHT22;3085;49.444;11.054;2023-02-01T01:25:57;4.60;99.90
6110;DHT22;3085;49.444;11.054;2023-02-01T01:28:24;4.60;99.90
6110;DHT22;3085;49.444;11.054;2023-02-01T01:30:52;4.60;99.90
6110;DHT22;3085;49.444;11.054;2023-02-01T01:33:19;4.60;99.90
6110;DHT22;3085;49.444;11.054;2023-02-01T01:35:46;4.60;99.90
6110;DHT22;3085;49.444;11.054;2023-02-01T01:38:12;4.60;99.90
6110;DHT22;3085;49.444;11.054;2023-02-01T01:40:39;4.60;99.90
6110;DHT22;3085;49.444;11.054;2023-02-01T01:43:13;4.60;99.90
6110;DHT22;3085;49.444;11.054;2023-02-01T01:45:40;4.60;99.90
6110;DHT22;3085;49.444;11.054;2023-02-01T01:48:12;4.50;99.90
6110;DHT22;3085;49.444;11.054;2023-02-01T01:50:44;4.50;99.90
6110;DHT22;3085;49.444;11.054;2023-02-01T01:53:16;4.50;99.90
6110;DHT22;3085;49.444;11.054;2023-02-01T01:55:46;4.60;99.90
6110;DHT22;3085;49.444;11.054;2023-02-01T01:58:16;4.50;99.90
6110;DHT22;3085;49.444;11.054;2023-02-01T02:00:44;4.60;99.90
6110;DHT22;3085;49.444;11.054;2023-02-01T02:03:19;4.60;99.90
6110;DHT22;3085;49.444;11.054;2023-02-01T02:05:48;4.60;99.90
6110;DHT22;3085;49.444;11.054;2023-02-01T02:08:17;4.50;99.90
6110;DHT22;3085;49.444;11.054;2023-02-01T02:10:46;4.60;99.90
6110;DHT22;3085;49.444;11.054;2023-02-01T02:13:31;4.60;99.90
6110;DHT22;3085;49.444;11.054;2023-02-01T02:16:08;4.60;99.90
6110;DHT22;3085;49.444;11.054;2023-02-01T02:18:48;4.60;99.90
6110;DHT22;3085;49.444;11.054;2023-02-01T02:21:38;4.60;99.90
6110;DHT22;3085;49.444;11.054;2023-02-01T02:24:44;4.60;99.90
6110;DHT22;3085;49.444;11.054;2023-02-01T02:27:23;4.50;99.90
6110;DHT22;3085;49.444;11.054;2023-02-01T02:30:09;4.60;99.90
6110;DHT22;3085;49.444;11.054;2023-02-01T02:33:16;4.60;99.90
6110;DHT22;3085;49.444;11.054;2023-02-01T02:35:48;4.60;99.90
6110;DHT22;3085;49.444;11.054;2023-02-01T02:38:24;4.60;99.90
6110;DHT22;3085;49.444;11.054;2023-02-01T02:40:58;4.60;99.90
6110;DHT22;3085;49.444;11.054;2023-02-01T02:43:32;4.60;99.90
6110;DHT22;3085;49.444;11.054;2023-02-01T02:46:36;4.60;99.90
6110;DHT22;3085;49.444;11.054;2023-02-01T02:51:54;4.60;99.90
6110;DHT22;3085;49.444;11.054;2023-02-01T02:54:56;4.50;99.90
6110;DHT22;3085;49.444;11.054;2023-02-01T02:57:26;4.50;99.90
6110;DHT22;3085;49.444;11.054;2023-02-01T03:00:15;4.60;99.90
6110;DHT22;3085;49.444;11.054;2023-02-01T03:03:00;4.50;99.90
6110;DHT22;3085;49.444;11.054;2023-02-01T03:05:46;4.50;99.90
6110;DHT22;3085;49.444;11.054;2023-02-01T03:08:18;4.50;99.90
6110;DHT22;3085;49.444;11.054;2023-02-01T03:10:51;4.50;99.90
6110;DHT22;3085;49.444;11.054;2023-02-01T03:13:27;4.50;99.90
6110;DHT22;3085;49.444;11.054;2023-02-01T03:16:00;4.40;99.90
6110;DHT22;3085;49.444;11.054;2023-02-01T03:18:32;4.50;99.90
6110;DHT22;3085;49.444;11.054;2023-02-01T03:21:02;4.50;99.90
6110;DHT22;3085;49.444;11.054;2023-02-01T03:23:34;4.50;99.90
6110;DHT22;3085;49.444;11.054;2023-02-01T03:26:04;4.50;99.90
6110;DHT22;3085;49.444;11.054;2023-02-01T03:28:33;4.40;99.90
6110;DHT22;3085;49.444;11.054;2023-02-01T03:31:01;4.50;99.90
6110;DHT22;3085;49.444;11.054;2023-02-01T03:33:30;4.50;99.90
6110;DHT22;3085;49.444;11.054;2023-02-01T03:36:04;4.50;99.90
6110;DHT22;3085;49.444;11.054;2023-02-01T03:38:38;4.40;99.90
6110;DHT22;3085;49.444;11.054;2023-02-01T03:41:11;4.50;99.90
6110;DHT22;3085;49.444;11.054;2023-02-01T03:43:45;4.50;99.90
6110;DHT22;3085;49.444;11.054;2023-02-01T03:46:19;4.50;99.90
6110;DHT22;3085;49.444;11.054;2023-02-01T03:48:48;4.50;99.90
6110;DHT22;3085;49.444;11.054;2023-02-01T03:51:16;3.30;99.90
6110;DHT22;3085;49.444;11.054;2023-02-01T03:53:46;4.50;99.90
6110;DHT22;3085;49.444;11.054;2023-02-01T03:56:15;4.50;99.90
6110;DHT22;3085;49.444;11.054;2023-02-01T03:58:42;4.60;99.90
6110;DHT22;3085;49.444;11.054;2023-02-01T04:01:23;4.60;99.90
6110;DHT22;3085;49.444;11.054;2023-02-01T04:03:50;4.60;99.90
6110;DHT22;3085;49.444;11.054;2023-02-01T04:06:17;4.60;99.90
6110;DHT22;3085;49.444;11.054;2023-02-01T04:08:45;4.60;99.90
6110;DHT22;3085;49.444;11.054;2023-02-01T04:11:12;4.60;99.90
6110;DHT22;3085;49.444;11.054;2023-02-01T04:13:39;4.70;99.90
6110;DHT22;3085;49.444;11.054;2023-02-01T04:16:06;4.60;99.90
6110;DHT22;3085;49.444;11.054;2023-02-01T04:18:33;4.60;99.90
6110;DHT22;3085;49.444;11.054;2023-02-01T04:21:00;4.60;99.90
6110;DHT22;3085;49.444;11.054;2023-02-01T04:23:27;4.60;99.90
6110;DHT22;3085;49.444;11.054;2023-02-01T04:25:59;4.70;99.90
6110;DHT22;3085;49.444;11.054;2023-02-01T04:28:27;4.70;99.90
6110;DHT22;3085;49.444;11.054;2023-02-01T04:30:53;4.70;99.90
6110;DHT22;3085;49.444;11.054;2023-02-01T04:33:20;4.70;99.90
6110;DHT22;3085;49.444;11.054;2023-02-01T04:35:47;4.70;99.90
6110;DHT22;3085;49.444;11.054;2023-02-01T04:38:14;4.60;99.90
6110;DHT22;3085;49.444;11.054;2023-02-01T04:40:40;4.60;99.90
6110;DHT22;3085;49.444;11.054;2023-02-01T04:43:09;4.60;99.90
6110;DHT22;3085;49.444;11.054;2023-02-01T04:45:35;4.60;99.90
6110;DHT22;3085;49.444;11.054;2023-02-01T04:48:03;4.50;99.90
6110;DHT22;3085;49.444;11.054;2023-02-01T04:50:29;4.50;99.90
6110;DHT22;3085;49.444;11.054;2023-02-01T04:52:56;4.50;99.90
6110;DHT22;3085;49.444;11.054;2023-02-01T04:55:23;4.50;99.90
6110;DHT22;3085;49.444;11.054;2023-02-01T04:57:50;4.50;99.90
6110;DHT22;3085;49.444;11.054;2023-02-01T05:00:18;4.50;99.90
6110;DHT22;3085;49.444;11.054;2023-02-01T05:02:45;4.50;99.90
6110;DHT22;3085;49.444;11.054;2023-02-01T05:05:12;4.40;99.90
6110;DHT22;3085;49.444;11.054;2023-02-01T05:07:39;4.50;99.90
6110;DHT22;3085;49.444;11.054;2023-02-01T05:10:07;4.40;99.90
6110;DHT22;3085;49.444;11.054;2023-02-01T05:12:34;4.40;99.90
6110;DHT22;3085;49.444;11.054;2023-02-01T05:15:20;4.40;99.90
6110;DHT22;3085;49.444;11.054;2023-02-01T05:17:46;4.40;99.90
6110;DHT22;3085;49.444;11.054;2023-02-01T05:20:13;4.40;99.90
6110;DHT22;3085;49.444;11.054;2023-02-01T05:22:41;4.30;99.90
6110;DHT22;3085;49.444;11.054;2023-02-01T05:25:08;4.30;99.90
6110;DHT22;3085;49.444;11.054;2023-02-01T05:27:35;4.30;99.90
6110;DHT22;3085;49.444;11.054;2023-02-01T05:30:03;4.30;99.90
6110;DHT22;3085;49.444;11.054;2023-02-01T05:32:31;4.30;99.90
6110;DHT22;3085;49.444;11.054;2023-02-01T05:34:58;4.30;99.90
6110;DHT22;3085;49.444;11.054;2023-02-01T05:37:25;4.40;99.90
6110;DHT22;3085;49.444;11.054;2023-02-01T05:39:52;4.30;99.90
6110;DHT22;3085;49.444;11.054;2023-02-01T05:42:19;4.30;99.90
6110;DHT22;3085;49.444;11.054;2023-02-01T05:44:45;4.30;99.90
6110;DHT22;3085;49.444;11.054;2023-02-01T05:47:12;4.30;99.90
6110;DHT22;3085;49.444;11.054;2023-02-01T05:49:40;4.30;99.90
6110;DHT22;3085;49.444;11.054;2023-02-01T05:52:10;4.20;99.90
6110;DHT22;3085;49.444;11.054;2023-02-01T05:54:37;4.20;99.90
6110;DHT22;3085;49.444;11.054;2023-02-01T05:57:04;4.10;99.90
6110;DHT22;3085;49.444;11.054;2023-02-01T05:59:31;4.20;99.90
6110;DHT22;3085;49.444;11.054;2023-02-01T06:01:57;4.20;99.90
6110;DHT22;3085;49.444;11.054;2023-02-01T06:04:25;4.20;99.90
6110;DHT22;3085;49.444;11.054;2023-02-01T06:06:53;4.20;99.90
6110;DHT22;3085;49.444;11.054;2023-02-01T06:09:19;4.10;99.90
6110;DHT22;3085;49.444;11.054;2023-02-01T06:11:47;4.10;99.90
6110;DHT22;3085;49.444;11.054;2023-02-01T06:14:14;4.10;99.90
6110;DHT22;3085;49.444;11.054;2023-02-01T06:16:40;4.00;99.90
6110;DHT22;3085;49.444;11.054;2023-02-01T06:19:07;4.30;99.90
6110;DHT22;3085;49.444;11.054;2023-02-01T06:21:35;4.00;99.90
6110;DHT22;3085;49.444;11.054;2023-02-01T06:24:04;4.10;99.90
6110;DHT22;3085;49.444;11.054;2023-02-01T06:26:32;4.10;99.90
6110;DHT22;3085;49.444;11.054;2023-02-01T06:28:59;4.10;99.90
6110;DHT22;3085;49.444;11.054;2023-02-01T06:31:25;4.10;99.90
6110;DHT22;3085;49.444;11.054;2023-02-01T06:33:52;4.00;99.90
6110;DHT22;3085;49.444;11.054;2023-02-01T06:36:20;4.00;99.90
6110;DHT22;3085;49.444;11.054;2023-02-01T06:38:47;4.10;99.90
6110;DHT22;3085;49.444;11.054;2023-02-01T06:41:15;4.00;99.90
6110;DHT22;3085;49.444;11.054;2023-02-01T06:43:42;4.10;99.90
6110;DHT22;3085;49.444;11.054;2023-02-01T06:46:12;4.10;99.90
6110;DHT22;3085;49.444;11.054;2023-02-01T06:48:39;4.10;99.90
6110;DHT22;3085;49.444;11.054;2023-02-01T06:51:12;4.00;99.90
6110;DHT22;3085;49.444;11.054;2023-02-01T06:53:42;4.10;99.90
6110;DHT22;3085;49.444;11.054;2023-02-01T06:56:09;4.00;99.90
6110;DHT22;3085;49.444;11.054;2023-02-01T06:58:37;4.00;99.90
6110;DHT22;3085;49.444;11.054;2023-02-01T07:01:05;3.90;99.90
6110;DHT22;3085;49.444;11.054;2023-02-01T07:03:32;3.90;99.90
6110;DHT22;3085;49.444;11.054;2023-02-01T07:05:59;5.20;99.90
6110;DHT22;3085;49.444;11.054;2023-02-01T07:08:27;4.00;99.90
6110;DHT22;3085;49.444;11.054;2023-02-01T07:10:53;4.10;99.90
6110;DHT22;3085;49.444;11.054;2023-02-01T07:13:20;4.00;99.90
6110;DHT22;3085;49.444;11.054;2023-02-01T07:15:49;4.00;99.90
6110;DHT22;3085;49.444;11.054;2023-02-01T07:18:18;4.00;99.90
6110;DHT22;3085;49.444;11.054;2023-02-01T07:20:50;4.00;99.90
6110;DHT22;3085;49.444;11.054;2023-02-01T07:23:17;4.00;99.90
6110;DHT22;3085;49.444;11.054;2023-02-01T07:25:44;4.10;99.90
6110;DHT22;3085;49.444;11.054;2023-02-01T07:28:11;4.10;99.90
6110;DHT22;3085;49.444;11.054;2023-02-01T07:30:38;4.10;99.90
6110;DHT22;3085;49.444;11.054;2023-02-01T07:33:06;4.10;99.90
6110;DHT22;3085;49.444;11.054;2023-02-01T07:35:33;4.10;99.90
6110;DHT22;3085;49.444;11.054;2023-02-01T07:38:01;4.10;99.90
6110;DHT22;3085;49.444;11.054;2023-02-01T07:40:27;4.20;99.90
6110;DHT22;3085;49.444;11.054;2023-02-01T07:42:55;4.20;99.90
6110;DHT22;3085;49.444;11.054;2023-02-01T07:45:23;4.20;99.90
6110;DHT22;3085;49.444;11.054;2023-02-01T07:47:52;4.30;99.90
6110;DHT22;3085;49.444;11.054;2023-02-01T07:50:20;4.30;99.90
6110;DHT22;3085;49.444;11.054;2023-02-01T07:52:47;4.30;99.90
6110;DHT22;3085;49.444;11.054;2023-02-01T07:55:14;4.30;99.90
6110;DHT22;3085;49.444;11.054;2023-02-01T07:57:41;4.30;99.90
6110;DHT22;3085;49.444;11.054;2023-02-01T08:00:09;4.30;99.90
6110;DHT22;3085;49.444;11.054;2023-02-01T08:02:53;4.40;99.90
6110;DHT22;3085;49.444;11.054;2023-02-01T08:05:21;4.40;99.90
6110;DHT22;3085;49.444;11.054;2023-02-01T08:07:48;4.40;99.90
6110;DHT22;3085;49.444;11.054;2023-02-01T08:10:16;4.40;99.90
6110;DHT22;3085;49.444;11.054;2023-02-01T08:12:43;4.40;99.90
6110;DHT22;3085;49.444;11.054;2023-02-01T08:15:13;4.50;99.90
6110;DHT22;3085;49.444;11.054;2023-02-01T08:17:40;4.50;99.90
6110;DHT22;3085;49.444;11.054;2023-02-01T08:20:08;4.50;99.90
6110;DHT22;3085;49.444;11.054;2023-02-01T08:22:36;4.50;99.90
6110;DHT22;3085;49.444;11.054;2023-02-01T08:25:04;4.50;99.90
6110;DHT22;3085;49.444;11.054;2023-02-01T08:27:32;4.50;99.90
6110;DHT22;3085;49.444;11.054;2023-02-01T08:29:59;4.60;99.90
6110;DHT22;3085;49.444;11.054;2023-02-01T08:32:26;4.60;99.90
6110;DHT22;3085;49.444;11.054;2023-02-01T08:34:53;4.60;99.90
6110;DHT22;3085;49.444;11.054;2023-02-01T08:37:20;4.60;99.90
6110;DHT22;3085;49.444;11.054;2023-02-01T08:39:49;4.70;99.90
6110;DHT22;3085;49.444;11.054;2023-02-01T08:42:16;4.70;99.90
6110;DHT22;3085;49.444;11.054;2023-02-01T08:45:00;4.70;99.90
6110;DHT22;3085;49.444;11.054;2023-02-01T08:47:27;5.50;99.90
6110;DHT22;3085;49.444;11.054;2023-02-01T08:49:54;4.80;99.90
6110;DHT22;3085;49.444;11.054;2023-02-01T08:52:21;4.80;99.90
6110;DHT22;3085;49.444;11.054;2023-02-01T08:54:49;4.80;99.90
6110;DHT22;3085;49.444;11.054;2023-02-01T08:57:16;4.80;99.90
6110;DHT22;3085;49.444;11.054;2023-02-01T08:59:43;4.90;99.90
6110;DHT22;3085;49.444;11.054;2023-02-01T09:02:12;4.90;99.90
6110;DHT22;3085;49.444;11.054;2023-02-01T09:04:39;4.90;99.90
6110;DHT22;3085;49.444;11.054;2023-02-01T09:07:06;4.90;99.90
6110;DHT22;3085;49.444;11.054;2023-02-01T09:09:33;4.90;99.90
6110;DHT22;3085;49.444;11.054;2023-02-01T09:12:02;4.90;99.90
6110;DHT22;3085;49.444;11.054;2023-02-01T09:14:29;4.90;99.90
6110;DHT22;3085;49.444;11.054;2023-02-01T09:16:55;5.00;99.90
6110;DHT22;3085;49.444;11.054;2023-02-01T09:19:22;4.90;99.90
6110;DHT22;3085;49.444;11.054;2023-02-01T09:21:49;4.80;99.90
6110;DHT22;3085;49.444;11.054;2023-02-01T09:24:16;4.70;99.90
6110;DHT22;3085;49.444;11.054;2023-02-01T09:26:42;4.50;99.90
6110;DHT22;3085;49.444;11.054;2023-02-01T09:29:10;4.40;99.90
6110;DHT22;3085;49.444;11.054;2023-02-01T09:31:37;4.40;99.90
6110;DHT22;3085;49.444;11.054;2023-02-01T09:34:05;4.40;99.90
6110;DHT22;3085;49.444;11.054;2023-02-01T09:36:32;4.30;99.90
6110;DHT22;3085;49.444;11.054;2023-02-01T09:38:59;4.20;99.90
6110;DHT22;3085;49.444;11.054;2023-02-01T09:41:35;4.00;99.90
6110;DHT22;3085;49.444;11.054;2023-02-01T09:44:12;3.90;99.90
6110;DHT22;3085;49.444;11.054;2023-02-01T09:46:42;3.90;99.90
6110;DHT22;3085;49.444;11.054;2023-02-01T09:49:13;4.00;99.90
6110;DHT22;3085;49.444;11.054;2023-02-01T09:51:44;4.00;99.90
6110;DHT22;3085;49.444;11.054;2023-02-01T09:54:16;4.10;99.90
6110;DHT22;3085;49.444;11.054;2023-02-01T09:56:47;4.10;99.90
6110;DHT22;3085;49.444;11.054;2023-02-01T09:59:29;4.20;99.90
6110;DHT22;3085;49.444;11.054;2023-02-01T10:01:58;4.30;99.90
6110;DHT22;3085;49.444;11.054;2023-02-01T10:04:26;4.40;99.90
6110;DHT22;3085;49.444;11.054;2023-02-01T10:07:09;4.50;99.90
6110;DHT22;3085;49.444;11.054;2023-02-01T10:09:50;4.50;99.90
6110;DHT22;3085;49.444;11.054;2023-02-01T10:15:45;4.70;99.90
6110;DHT22;3085;49.444;11.054;2023-02-01T10:18:37;4.70;99.90
6110;DHT22;3085;49.444;11.054;2023-02-01T10:21:14;4.80;99.90
6110;DHT22;3085;49.444;11.054;2023-02-01T10:26:45;4.90;99.90
6110;DHT22;3085;49.444;11.054;2023-02-01T10:29:15;4.90;99.90
6110;DHT22;3085;49.444;11.054;2023-02-01T10:31:44;4.90;99.90
6110;DHT22;3085;49.444;11.054;2023-02-01T10:34:17;4.90;99.90
6110;DHT22;3085;49.444;11.054;2023-02-01T10:36:52;4.90;99.90
6110;DHT22;3085;49.444;11.054;2023-02-01T10:39:20;5.00;99.90
6110;DHT22;3085;49.444;11.054;2023-02-01T10:41:48;5.00;99.90
6110;DHT22;3085;49.444;11.054;2023-02-01T10:44:17;5.00;99.90
6110;DHT22;3085;49.444;11.054;2023-02-01T10:46:49;5.10;99.90
6110;DHT22;3085;49.444;11.054;2023-02-01T10:49:18;5.10;99.90
6110;DHT22;3085;49.444;11.054;2023-02-01T10:51:49;5.10;99.90
6110;DHT22;3085;49.444;11.054;2023-02-01T10:54:19;5.10;99.90
6110;DHT22;3085;49.444;11.054;2023-02-01T10:56:47;5.10;99.90
6110;DHT22;3085;49.444;11.054;2023-02-01T10:59:16;5.10;99.90
6110;DHT22;3085;49.444;11.054;2023-02-01T11:01:45;5.10;99.90
6110;DHT22;3085;49.444;11.054;2023-02-01T11:04:14;5.10;99.90
6110;DHT22;3085;49.444;11.054;2023-02-01T11:06:43;5.10;99.90
6110;DHT22;3085;49.444;11.054;2023-02-01T11:09:15;5.10;99.90
6110;DHT22;3085;49.444;11.054;2023-02-01T11:11:59;5.20;99.90
6110;DHT22;3085;49.444;11.054;2023-02-01T11:14:32;5.10;99.90
6110;DHT22;3085;49.444;11.054;2023-02-01T11:17:02;5.20;99.90
6110;DHT22;3085;49.444;11.054;2023-02-01T11:19:44;5.20;99.90
6110;DHT22;3085;49.444;11.054;2023-02-01T11:22:12;5.60;99.90
6110;DHT22;3085;49.444;11.054;2023-02-01T11:24:40;5.30;99.90
6110;DHT22;3085;49.444;11.054;2023-02-01T11:27:14;5.30;99.90
6110;DHT22;3085;49.444;11.054;2023-02-01T11:29:44;5.30;99.90
6110;DHT22;3085;49.444;11.054;2023-02-01T11:32:13;5.40;99.90
6110;DHT22;3085;49.444;11.054;2023-02-01T11:34:45;5.40;99.90
6110;DHT22;3085;49.444;11.054;2023-02-01T11:37:17;5.40;99.90
6110;DHT22;3085;49.444;11.054;2023-02-01T11:39:54;5.40;99.90
6110;DHT22;3085;49.444;11.054;2023-02-01T11:42:21;5.40;99.90
6110;DHT22;3085;49.444;11.054;2023-02-01T11:44:48;5.40;99.90
6110;DHT22;3085;49.444;11.054;2023-02-01T11:47:23;5.30;99.90
6110;DHT22;3085;49.444;11.054;2023-02-01T11:49:53;5.40;99.90
6110;DHT22;3085;49.444;11.054;2023-02-01T11:52:31;5.40;99.90
6110;DHT22;3085;49.444;11.054;2023-02-01T11:55:13;5.40;99.90
6110;DHT22;3085;49.444;11.054;2023-02-01T11:57:52;5.40;99.90
6110;DHT22;3085;49.444;11.054;2023-02-01T12:00:32;5.30;99.90
6110;DHT22;3085;49.444;11.054;2023-02-01T12:03:24;5.30;99.90
6110;DHT22;3085;49.444;11.054;2023-02-01T12:05:59;5.40;99.90
6110;DHT22;3085;49.444;11.054;2023-02-01T12:08:49;5.40;99.90
6110;DHT22;3085;49.444;11.054;2023-02-01T12:11:34;5.40;99.90
6110;DHT22;3085;49.444;11.054;2023-02-01T12:14:13;5.40;99.90
6110;DHT22;3085;49.444;11.054;2023-02-01T12:16:48;5.40;99.90
6110;DHT22;3085;49.444;11.054;2023-02-01T12:19:27;5.50;99.90
6110;DHT22;3085;49.444;11.054;2023-02-01T12:22:08;5.50;99.90
6110;DHT22;3085;49.444;11.054;2023-02-01T12:25:06;5.50;99.90
6110;DHT22;3085;49.444;11.054;2023-02-01T12:30:52;5.40;99.90
6110;DHT22;3085;49.444;11.054;2023-02-01T12:33:35;5.40;99.90
6110;DHT22;3085;49.444;11.054;2023-02-01T12:36:16;5.50;99.90
6110;DHT22;3085;49.444;11.054;2023-02-01T12:38:52;5.50;99.90
6110;DHT22;3085;49.444;11.054;2023-02-01T12:41:34;5.50;99.90
6110;DHT22;3085;49.444;11.054;2023-02-01T12:44:04;5.50;99.90
6110;DHT22;3085;49.444;11.054;2023-02-01T12:46:39;5.50;99.90
6110;DHT22;3085;49.444;11.054;2023-02-01T12:49:11;5.60;99.90
6110;DHT22;3085;49.444;11.054;2023-02-01T12:51:43;5.50;99.90
6110;DHT22;3085;49.444;11.054;2023-02-01T12:54:17;5.50;99.90
6110;DHT22;3085;49.444;11.054;2023-02-01T12:56:48;5.50;99.90
6110;DHT22;3085;49.444;11.054;2023-02-01T12:59:20;5.60;99.90
6110;DHT22;3085;49.444;11.054;2023-02-01T13:01:54;5.60;99.90
6110;DHT22;3085;49.444;11.054;2023-02-01T13:04:28;5.50;99.90
6110;DHT22;3085;49.444;11.054;2023-02-01T13:07:03;5.60;99.90
6110;DHT22;3085;49.444;11.054;2023-02-01T13:09:38;5.60;99.90
6110;DHT22;3085;49.444;11.054;2023-02-01T13:12:12;5.50;99.90
6110;DHT22;3085;49.444;11.054;2023-02-01T13:14:43;5.40;99.90
6110;DHT22;3085;49.444;11.054;2023-02-01T13:17:15;5.30;99.90
6110;DHT22;3085;49.444;11.054;2023-02-01T13:19:46;5.30;99.90
6110;DHT22;3085;49.444;11.054;2023-02-01T13:22:19;5.40;99.90
6110;DHT22;3085;49.444;11.054;2023-02-01T13:24:50;5.40;99.90
6110;DHT22;3085;49.444;11.054;2023-02-01T13:27:18;5.30;99.90
6110;DHT22;3085;49.444;11.054;2023-02-01T13:29:50;5.30;99.90
6110;DHT22;3085;49.444;11.054;2023-02-01T13:35:29;5.30;99.90
6110;DHT22;3085;49.444;11.054;2023-02-01T13:38:15;5.40;99.90
6110;DHT22;3085;49.444;11.054;2023-02-01T13:40:53;5.40;99.90
6110;DHT22;3085;49.444;11.054;2023-02-01T13:43:28;5.40;99.90
6110;DHT22;3085;49.444;11.054;2023-02-01T13:45:57;5.40;99.90
6110;DHT22;3085;49.444;11.054;2023-02-01T13:48:33;5.40;99.90
6110;DHT22;3085;49.444;11.054;2023-02-01T13:51:02;6.40;99.90
6110;DHT22;3085;49.444;11.054;2023-02-01T13:53:31;5.40;99.90
6110;DHT22;3085;49.444;11.054;2023-02-01T13:56:02;5.60;99.90
6110;DHT22;3085;49.444;11.054;2023-02-01T13:58:34;5.40;99.90
6110;DHT22;3085;49.444;11.054;2023-02-01T14:04:46;5.40;99.90
6110;DHT22;3085;49.444;11.054;2023-02-01T14:07:20;5.40;99.90
6110;DHT22;3085;49.444;11.054;2023-02-01T14:09:49;5.40;99.90
6110;DHT22;3085;49.444;11.054;2023-02-01T14:12:43;5.30;99.90
6110;DHT22;3085;49.444;11.054;2023-02-01T14:15:20;5.40;99.90
6110;DHT22;3085;49.444;11.054;2023-02-01T14:17:48;5.40;99.90
6110;DHT22;3085;49.444;11.054;2023-02-01T14:20:40;5.40;99.90
6110;DHT22;3085;49.444;11.054;2023-02-01T14:23:16;5.40;99.90
6110;DHT22;3085;49.444;11.054;2023-02-01T14:25:44;5.50;99.90
6110;DHT22;3085;49.444;11.054;2023-02-01T14:28:22;5.50;99.90
6110;DHT22;3085;49.444;11.054;2023-02-01T14:30:51;5.50;99.90
6110;DHT22;3085;49.444;11.054;2023-02-01T14:33:21;5.50;99.90
6110;DHT22;3085;49.444;11.054;2023-02-01T14:36:05;5.50;99.90
6110;DHT22;3085;49.444;11.054;2023-02-01T14:38:35;5.50;99.90
6110;DHT22;3085;49.444;11.054;2023-02-01T14:41:25;5.40;99.90
6110;DHT22;3085;49.444;11.054;2023-02-01T14:44:23;5.50;99.90
6110;DHT22;3085;49.444;11.054;2023-02-01T14:52:47;5.50;99.90
6110;DHT22;3085;49.444;11.054;2023-02-01T14:55:19;5.40;99.90
6110;DHT22;3085;49.444;11.054;2023-02-01T14:57:50;5.30;99.90
6110;DHT22;3085;49.444;11.054;2023-02-01T15:00:23;5.30;99.90
6110;DHT22;3085;49.444;11.054;2023-02-01T15:02:52;5.30;99.90
6110;DHT22;3085;49.444;11.054;2023-02-01T15:05:28;5.30;99.90
6110;DHT22;3085;49.444;11.054;2023-02-01T15:08:05;5.30;99.90
6110;DHT22;3085;49.444;11.054;2023-02-01T15:10:39;5.30;99.90
6110;DHT22;3085;49.444;11.054;2023-02-01T15:13:18;5.20;99.90
6110;DHT22;3085;49.444;11.054;2023-02-01T15:16:00;5.20;99.90
6110;DHT22;3085;49.444;11.054;2023-02-01T15:18:26;5.30;99.90
6110;DHT22;3085;49.444;11.054;2023-02-01T15:20:56;5.10;99.90
6110;DHT22;3085;49.444;11.054;2023-02-01T15:23:23;5.20;99.90
6110;DHT22;3085;49.444;11.054;2023-02-01T15:25:50;5.20;99.90
6110;DHT22;3085;49.444;11.054;2023-02-01T15:28:17;5.20;99.90
6110;DHT22;3085;49.444;11.054;2023-02-01T15:30:54;5.30;99.90
6110;DHT22;3085;49.444;11.054;2023-02-01T15:33:22;5.30;99.90
6110;DHT22;3085;49.444;11.054;2023-02-01T15:35:51;5.40;99.90
6110;DHT22;3085;49.444;11.054;2023-02-01T15:38:30;5.30;99.90
6110;DHT22;3085;49.444;11.054;2023-02-01T15:40:59;5.30;99.90
6110;DHT22;3085;49.444;11.054;2023-02-01T15:43:28;5.30;99.90
6110;DHT22;3085;49.444;11.054;2023-02-01T15:45:58;5.30;99.90
6110;DHT22;3085;49.444;11.054;2023-02-01T15:48:27;5.30;99.90
6110;DHT22;3085;49.444;11.054;2023-02-01T15:50:56;5.30;99.90
6110;DHT22;3085;49.444;11.054;2023-02-01T15:53:24;5.30;99.90
6110;DHT22;3085;49.444;11.054;2023-02-01T15:55:56;5.30;99.90
6110;DHT22;3085;49.444;11.054;2023-02-01T15:58:25;5.30;99.90
6110;DHT22;3085;49.444;11.054;2023-02-01T16:00:55;5.30;99.90
6110;DHT22;3085;49.444;11.054;2023-02-01T16:03:37;5.30;99.90
6110;DHT22;3085;49.444;11.054;2023-02-01T16:06:08;5.30;99.90
6110;DHT22;3085;49.444;11.054;2023-02-01T16:08:36;5.30;99.90
6110;DHT22;3085;49.444;11.054;2023-02-01T16:11:21;5.30;99.90
6110;DHT22;3085;49.444;11.054;2023-02-01T16:13:48;5.30;99.90
6110;DHT22;3085;49.444;11.054;2023-02-01T16:16:15;5.30;99.90
6110;DHT22;3085;49.444;11.054;2023-02-01T16:18:44;5.30;99.90
6110;DHT22;3085;49.444;11.054;2023-02-01T16:21:11;5.30;99.90
6110;DHT22;3085;49.444;11.054;2023-02-01T16:23:38;5.50;99.90
6110;DHT22;3085;49.444;11.054;2023-02-01T16:26:04;5.30;99.90
6110;DHT22;3085;49.444;11.054;2023-02-01T16:28:32;5.30;99.90
6110;DHT22;3085;49.444;11.054;2023-02-01T16:30:59;5.30;99.90
6110;DHT22;3085;49.444;11.054;2023-02-01T16:33:26;5.30;99.90
6110;DHT22;3085;49.444;11.054;2023-02-01T16:35:56;5.30;99.90
6110;DHT22;3085;49.444;11.054;2023-02-01T16:38:25;5.50;99.90
6110;DHT22;3085;49.444;11.054;2023-02-01T16:40:52;5.30;99.90
6110;DHT22;3085;49.444;11.054;2023-02-01T16:43:21;5.30;99.90
6110;DHT22;3085;49.444;11.054;2023-02-01T16:45:49;5.30;99.90
6110;DHT22;3085;49.444;11.054;2023-02-01T16:48:20;5.30;99.90
6110;DHT22;3085;49.444;11.054;2023-02-01T16:50:50;5.30;99.90
6110;DHT22;3085;49.444;11.054;2023-02-01T16:53:19;5.40;99.90